Terminal Aerodrome Forecast
Issued by NWS Tuscon, AZ

Current Version | Previous Version | Text Only | Print | Product List | Glossary On
Versions: 1 2 3 4 5 6 7 8 9 10 11 12 13 14
000
FTUS45 KTWC 190500
TAFDUG
TAF
KDUG 190520Z 1906/2006 32007KT P6SM FEW050
     FM191000 VRB03KT 2SM BR FEW015
     FM191500 04005KT P6SM FEW020 SCT050=

USA.gov is the U.S. government's official web portal to all federal, state and local government web resources and services.